Time;durP1;ratioP1;P1;durP2;ratioP2;P2;SDS_P1;SDS_P2;PMS_P1;PMS_P2;Temp;Humidity;BMP_temperature;BMP_pressure;BME280_temperature;BME280_humidity;BME280_pressure;Samples;Min_cycle;Max_cycle;Signal;HPM_P1;HPM_P2
2022/12/17 13:07:47;;;;;;;3.03;2.20;;;;;;;;;;5040125;28;94336;-58
2022/12/17 13:10:20;;;;;;;3.10;2.33;;;;;;;;;;5039980;28;93937;-58
2022/12/17 13:12:48;;;;;;;3.33;2.60;;;;;;;;;;5040085;27;92125;-58
2022/12/17 13:15:17;;;;;;;3.00;2.27;;;;;;;;;;5040377;27;91367;-58
2022/12/17 13:17:46;;;;;;;4.07;2.20;;;;;;;;;;5039808;28;94196;-58
2022/12/17 13:20:23;;;;;;;5.17;2.67;;;;;;;;;;5040262;27;92781;-58
2022/12/17 13:22:52;;;;;;;3.23;2.43;;;;;;;;;;5039972;28;93105;-58
2022/12/17 13:25:21;;;;;;;2.83;2.23;;;;;;;;;;5040695;27;92115;-58
2022/12/17 13:27:50;;;;;;;3.17;2.03;;;;;;;;;;5039413;27;93154;-58
2022/12/17 13:30:22;;;;;;;3.03;2.40;;;;;;;;;;5040065;28;93782;-58
2022/12/17 13:32:54;;;;;;;2.70;2.50;;;;;;;;;;5039544;27;92073;-58
2022/12/17 13:35:25;;;;;;;3.10;2.30;;;;;;;;;;5040238;27;92120;-60
2022/12/17 13:37:55;;;;;;;4.87;2.80;;;;;;;;;;5040570;27;93141;-60
2022/12/17 13:40:26;;;;;;;2.50;1.93;;;;;;;;;;5039991;28;93874;-60
2022/12/17 13:42:54;;;;;;;2.53;2.17;;;;;;;;;;5040268;27;92043;-60
2022/12/17 13:45:23;;;;;;;2.63;2.20;;;;;;;;;;5039903;27;92101;-60
2022/12/17 13:47:54;;;;;;;3.13;2.23;;;;;;;;;;5038875;28;95229;-60
2022/12/17 13:50:25;;;;;;;3.07;2.30;;;;;;;;;;5039580;28;94842;-60
2022/12/17 13:53:09;;;;;;;3.63;2.10;;;;;;;;;;5039698;27;92264;-60
2022/12/17 13:55:38;;;;;;;6.13;2.77;;;;;;;;;;5039781;27;92105;-60
2022/12/17 13:58:06;;;;;;;4.57;2.77;;;;;;;;;;5039066;28;94248;-60
2022/12/17 14:00:35;;;;;;;4.77;2.53;;;;;;;;;;5039248;28;93896;-60
2022/12/17 14:03:10;;;;;;;3.63;2.93;;;;;;;;;;5039567;27;92060;-60
2022/12/17 14:05:41;;;;;;;3.43;2.50;;;;;;;;;;5039666;27;91534;-60
2022/12/17 14:08:09;;;;;;;6.17;2.53;;;;;;;;;;5039096;28;94289;-60
2022/12/17 14:10:37;;;;;;;3.07;2.23;;;;;;;;;;5039086;27;92807;-60
2022/12/17 14:13:06;;;;;;;2.73;2.50;;;;;;;;;;5039299;27;93104;-60
2022/12/17 14:15:34;;;;;;;3.33;2.13;;;;;;;;;;5039382;28;92501;-61
2022/12/17 14:18:02;;;;;;;2.90;2.53;;;;;;;;;;5038869;27;93316;-60
2022/12/17 14:20:31;;;;;;;4.27;2.30;;;;;;;;;;5038567;27;93002;-60
2022/12/17 14:23:01;;;;;;;4.53;3.17;;;;;;;;;;5038649;28;92090;-60
2022/12/17 14:25:30;;;;;;;4.87;2.57;;;;;;;;;;5038885;27;92271;-60
2022/12/17 14:28:00;;;;;;;3.97;2.83;;;;;;;;;;5038720;27;94290;-60
2022/12/17 14:30:32;;;;;;;3.23;2.30;;;;;;;;;;5039327;27;91538;-60
2022/12/17 14:33:00;;;;;;;3.00;2.53;;;;;;;;;;5039304;27;92022;-60
2022/12/17 14:35:29;;;;;;;5.60;2.67;;;;;;;;;;5038959;27;92094;-60
2022/12/17 14:37:57;;;;;;;3.23;2.50;;;;;;;;;;5037924;27;94113;-60
2022/12/17 14:40:27;;;;;;;4.50;2.63;;;;;;;;;;5038443;27;93828;-60
2022/12/17 14:42:58;;;;;;;3.80;2.37;;;;;;;;;;5038430;27;92838;-60
2022/12/17 14:45:26;;;;;;;3.53;2.10;;;;;;;;;;5038479;27;92110;-60
2022/12/17 14:47:55;;;;;;;2.83;2.30;;;;;;;;;;5038465;27;93936;-60
2022/12/17 14:50:25;;;;;;;4.60;2.93;;;;;;;;;;5037857;27;92891;-60
2022/12/17 14:52:53;;;;;;;5.20;3.00;;;;;;;;;;5038342;27;92292;-60
2022/12/17 14:55:27;;;;;;;3.17;2.20;;;;;;;;;;5038853;28;91345;-61
2022/12/17 14:58:06;;;;;;;7.53;2.87;;;;;;;;;;5038486;28;94285;-60
2022/12/17 15:00:35;;;;;;;2.70;2.50;;;;;;;;;;5038209;27;94059;-60
2022/12/17 15:03:03;;;;;;;2.37;2.17;;;;;;;;;;5037516;28;93059;-60
2022/12/17 15:05:32;;;;;;;4.10;2.50;;;;;;;;;;5038586;27;92088;-60
2022/12/17 15:08:00;;;;;;;3.03;2.13;;;;;;;;;;5038314;27;94045;-60
2022/12/17 15:10:30;;;;;;;4.23;2.93;;;;;;;;;;5037798;28;93917;-60
2022/12/17 15:12:58;;;;;;;6.40;2.53;;;;;;;;;;5038250;27;92049;-60
2022/12/17 15:15:27;;;;;;;3.87;2.33;;;;;;;;;;5038516;27;92004;-60
2022/12/17 15:17:55;;;;;;;3.27;2.80;;;;;;;;;;5038123;28;92023;-60
2022/12/17 15:20:23;;;;;;;2.90;2.43;;;;;;;;;;5038563;28;93865;-60
2022/12/17 15:22:52;;;;;;;2.53;2.10;;;;;;;;;;5038322;27;92363;-60
2022/12/17 15:25:20;;;;;;;5.03;3.13;;;;;;;;;;5036761;28;92078;-60
2022/12/17 15:27:50;;;;;;;3.03;2.73;;;;;;;;;;5035937;27;94782;-59
2022/12/17 15:30:18;;;;;;;3.00;2.10;;;;;;;;;;5036453;27;94877;-60
2022/12/17 15:32:47;;;;;;;2.63;2.43;;;;;;;;;;5036426;27;92527;-60
2022/12/17 15:35:15;;;;;;;3.00;2.43;;;;;;;;;;5035889;27;92392;-59
2022/12/17 15:37:43;;;;;;;3.27;2.10;;;;;;;;;;5036422;27;93146;-60
2022/12/17 15:40:12;;;;;;;3.70;2.43;;;;;;;;;;5037799;27;93754;-60
2022/12/17 15:45:34;;;;;;;3.03;2.27;;;;;;;;;;5038676;28;91427;-58
2022/12/17 15:48:03;;;;;;;4.20;2.70;;;;;;;;;;5037508;27;93028;-59
2022/12/17 15:50:31;;;;;;;2.97;2.60;;;;;;;;;;5037685;27;93765;-61
2022/12/17 15:52:59;;;;;;;2.30;2.13;;;;;;;;;;5037133;27;93055;-58
2022/12/17 15:55:28;;;;;;;3.50;2.40;;;;;;;;;;5039360;27;92223;-59
2022/12/17 15:57:56;;;;;;;4.67;2.87;;;;;;;;;;5041017;28;93213;-60
2022/12/17 16:00:25;;;;;;;3.47;2.03;;;;;;;;;;5041698;27;92985;-60
2022/12/17 16:02:54;;;;;;;3.20;2.47;;;;;;;;;;5041707;27;92012;-60
2022/12/17 16:05:23;;;;;;;5.17;2.70;;;;;;;;;;5041307;28;92325;-60
2022/12/17 16:07:51;;;;;;;3.20;2.63;;;;;;;;;;5041290;28;93084;-60
2022/12/17 16:10:20;;;;;;;2.57;1.90;;;;;;;;;;5041199;28;93792;-60
2022/12/17 16:12:48;;;;;;;3.50;2.50;;;;;;;;;;5041503;28;92054;-60
2022/12/17 16:15:16;;;;;;;3.77;2.63;;;;;;;;;;5041102;28;92095;-60
2022/12/17 16:17:45;;;;;;;5.37;2.87;;;;;;;;;;5040220;27;95212;-60
2022/12/17 16:20:14;;;;;;;2.53;2.20;;;;;;;;;;5040667;28;94693;-60
2022/12/17 16:22:43;;;;;;;3.67;2.60;;;;;;;;;;5040825;27;92173;-60
2022/12/17 16:25:11;;;;;;;3.37;2.20;;;;;;;;;;5041070;27;92128;-60
2022/12/17 16:27:42;;;;;;;3.00;2.70;;;;;;;;;;5040672;28;93142;-60
2022/12/17 16:30:11;;;;;;;2.43;2.23;;;;;;;;;;5040895;27;93815;-59
2022/12/17 16:32:40;;;;;;;4.43;2.83;;;;;;;;;;5041766;28;92168;-60
2022/12/17 16:35:08;;;;;;;2.73;2.33;;;;;;;;;;5041506;27;91396;-58
2022/12/17 16:37:38;;;;;;;2.93;2.70;;;;;;;;;;5040588;27;93061;-58
2022/12/17 16:40:07;;;;;;;3.17;2.20;;;;;;;;;;5040562;27;92789;-58
2022/12/17 16:42:35;;;;;;;2.33;1.90;;;;;;;;;;5040504;27;93034;-60
2022/12/17 16:45:03;;;;;;;4.00;2.53;;;;;;;;;;5040543;27;92131;-60
2022/12/17 16:47:32;;;;;;;3.37;2.70;;;;;;;;;;5040447;28;94204;-59
2022/12/17 16:50:00;;;;;;;2.40;2.07;;;;;;;;;;5040184;28;93646;-58
2022/12/17 16:52:28;;;;;;;5.23;2.80;;;;;;;;;;5040668;27;92143;-58
2022/12/17 16:54:58;;;;;;;4.40;2.70;;;;;;;;;;5040424;27;92165;-59
2022/12/17 16:57:26;;;;;;;4.30;3.03;;;;;;;;;;5040216;27;93319;-58
2022/12/17 16:59:55;;;;;;;3.37;2.40;;;;;;;;;;5040332;27;92961;-59
2022/12/17 17:02:23;;;;;;;4.13;2.83;;;;;;;;;;5040937;27;91952;-59
2022/12/17 17:04:52;;;;;;;4.17;2.67;;;;;;;;;;5039494;27;92147;-59
2022/12/17 17:07:20;;;;;;;3.33;2.20;;;;;;;;;;5037750;27;95292;-58
2022/12/17 17:09:49;;;;;;;2.57;2.10;;;;;;;;;;5040332;27;94579;-59
2022/12/17 17:12:18;;;;;;;2.47;2.27;;;;;;;;;;5040727;28;92066;-59
2022/12/17 17:14:46;;;;;;;4.97;2.73;;;;;;;;;;5040531;27;92100;-60
2022/12/17 17:17:15;;;;;;;4.93;2.30;;;;;;;;;;5040092;27;93238;-58
2022/12/17 17:19:43;;;;;;;4.07;2.70;;;;;;;;;;5039747;28;93933;-58
2022/12/17 17:22:11;;;;;;;4.67;2.53;;;;;;;;;;5040020;27;92017;-59
2022/12/17 17:24:40;;;;;;;3.23;2.10;;;;;;;;;;5040706;27;91295;-58
2022/12/17 17:27:09;;;;;;;4.83;2.37;;;;;;;;;;5040013;28;94170;-58
2022/12/17 17:29:38;;;;;;;5.40;3.33;;;;;;;;;;5040012;27;93986;-58
2022/12/17 17:32:07;;;;;;;5.43;2.43;;;;;;;;;;5039638;27;93128;-58
2022/12/17 17:34:38;;;;;;;4.67;2.47;;;;;;;;;;5039709;27;92056;-58
2022/12/17 17:37:07;;;;;;;4.27;2.37;;;;;;;;;;5039020;27;94549;-58
2022/12/17 17:39:35;;;;;;;4.20;2.60;;;;;;;;;;5039340;27;92784;-60
2022/12/17 17:42:03;;;;;;;5.63;3.47;;;;;;;;;;5039723;27;92045;-61
2022/12/17 17:44:32;;;;;;;7.40;3.37;;;;;;;;;;5039752;27;92109;-58
2022/12/17 17:47:01;;;;;;;6.77;4.07;;;;;;;;;;5039326;28;94235;-60
2022/12/17 17:49:30;;;;;;;5.37;3.00;;;;;;;;;;5039627;27;92743;-58
2022/12/17 17:51:58;;;;;;;4.87;3.67;;;;;;;;;;5039387;27;93209;-58
2022/12/17 17:54:38;;;;;;;3.50;2.70;;;;;;;;;;5039671;27;92101;-58
2022/12/17 17:57:07;;;;;;;9.97;3.00;;;;;;;;;;5038470;28;95175;-58
2022/12/17 17:59:35;;;;;;;3.67;2.07;;;;;;;;;;5038803;27;95516;-60
2022/12/17 18:02:05;;;;;;;4.77;2.93;;;;;;;;;;5039371;27;92052;-60
2022/12/17 18:04:33;;;;;;;9.17;3.13;;;;;;;;;;5039557;27;92914;-59
2022/12/17 18:07:01;;;;;;;4.37;2.67;;;;;;;;;;5039079;27;93159;-60
2022/12/17 18:09:50;;;;;;;4.93;3.10;;;;;;;;;;5039059;27;92688;-60
2022/12/17 18:15:04;;;;;;;5.43;3.00;;;;;;;;;;5039673;28;91281;-60
2022/12/17 18:17:44;;;;;;;8.10;3.40;;;;;;;;;;5038562;27;92957;-60
2022/12/17 18:20:13;;;;;;;3.50;2.83;;;;;;;;;;5039107;28;94026;-59
2022/12/17 18:22:41;;;;;;;4.00;2.50;;;;;;;;;;5038824;27;93039;-58
2022/12/17 18:25:09;;;;;;;4.43;2.77;;;;;;;;;;5039252;27;92181;-58
2022/12/17 18:27:38;;;;;;;4.67;2.93;;;;;;;;;;5038775;28;94210;-58
2022/12/17 18:30:07;;;;;;;7.87;3.50;;;;;;;;;;5038460;27;94020;-58
2022/12/17 18:32:35;;;;;;;6.00;3.30;;;;;;;;;;5039191;27;92004;-58
2022/12/17 18:35:05;;;;;;;4.87;2.57;;;;;;;;;;5039117;27;92237;-59
2022/12/17 18:37:33;;;;;;;5.07;3.07;;;;;;;;;;5038193;28;94246;-58
2022/12/17 18:40:02;;;;;;;6.83;3.93;;;;;;;;;;5038636;28;93856;-58
2022/12/17 18:45:16;;;;;;;6.03;3.60;;;;;;;;;;5038644;28;92054;-58
2022/12/17 18:47:44;;;;;;;4.17;2.47;;;;;;;;;;5038052;28;95237;-58
2022/12/17 18:50:14;;;;;;;5.13;2.83;;;;;;;;;;5038705;28;94850;-58
2022/12/17 18:52:42;;;;;;;6.97;2.97;;;;;;;;;;5038397;28;92015;-58
2022/12/17 18:55:11;;;;;;;4.00;2.97;;;;;;;;;;5039144;28;91982;-58
2022/12/17 18:57:39;;;;;;;6.23;3.30;;;;;;;;;;5037834;28;92917;-58
2022/12/17 19:00:08;;;;;;;6.73;2.87;;;;;;;;;;5037986;27;93006;-58
2022/12/17 19:02:37;;;;;;;5.37;3.53;;;;;;;;;;5038788;27;92196;-58
2022/12/17 19:05:05;;;;;;;8.60;4.27;;;;;;;;;;5039193;27;91404;-58
2022/12/17 19:07:35;;;;;;;8.13;3.43;;;;;;;;;;5038368;28;93377;-58
2022/12/17 19:10:04;;;;;;;5.40;3.07;;;;;;;;;;5038268;27;92792;-58
2022/12/17 19:12:32;;;;;;;6.93;3.20;;;;;;;;;;5038411;27;92890;-58
2022/12/17 19:15:00;;;;;;;5.50;3.00;;;;;;;;;;5038012;28;92136;-58
2022/12/17 19:17:29;;;;;;;6.73;3.87;;;;;;;;;;5037667;27;93264;-58
2022/12/17 19:19:57;;;;;;;6.07;2.87;;;;;;;;;;5038029;28;95963;-58
2022/12/17 19:22:25;;;;;;;5.07;2.43;;;;;;;;;;5037811;28;92069;-58
2022/12/17 19:24:55;;;;;;;4.20;2.73;;;;;;;;;;5038690;27;92211;-58
2022/12/17 19:27:24;;;;;;;5.03;2.87;;;;;;;;;;5037755;27;94214;-58
2022/12/17 19:29:53;;;;;;;8.90;4.17;;;;;;;;;;5038231;28;93436;-58
2022/12/17 19:32:22;;;;;;;5.80;2.80;;;;;;;;;;5038175;27;92136;-58
2022/12/17 19:34:50;;;;;;;4.83;3.33;;;;;;;;;;5038298;27;92098;-59
2022/12/17 19:37:19;;;;;;;9.90;3.77;;;;;;;;;;5037335;27;94390;-59
2022/12/17 19:39:47;;;;;;;4.70;2.97;;;;;;;;;;5037491;27;93861;-58
2022/12/17 19:42:24;;;;;;;7.53;3.30;;;;;;;;;;5038189;28;92018;-58
2022/12/17 19:44:52;;;;;;;5.27;3.00;;;;;;;;;;5038243;27;92078;-58
2022/12/17 19:47:21;;;;;;;7.17;4.50;;;;;;;;;;5038061;27;94390;-58
2022/12/17 19:49:49;;;;;;;4.20;2.83;;;;;;;;;;5037684;27;93034;-58
2022/12/17 19:52:18;;;;;;;6.37;2.90;;;;;;;;;;5038558;27;92752;-58
2022/12/17 19:54:46;;;;;;;5.00;3.37;;;;;;;;;;5038611;28;91280;-58
2022/12/17 19:57:14;;;;;;;8.93;3.67;;;;;;;;;;5037162;28;94063;-58
2022/12/17 19:59:44;;;;;;;7.67;3.57;;;;;;;;;;5037735;28;93689;-58
2022/12/17 20:02:14;;;;;;;5.53;3.37;;;;;;;;;;5038063;27;93060;-58
2022/12/17 20:04:42;;;;;;;6.10;3.10;;;;;;;;;;5038146;27;92103;-58
2022/12/17 20:07:11;;;;;;;5.93;3.30;;;;;;;;;;5037415;27;93022;-58
2022/12/17 20:09:42;;;;;;;5.67;3.00;;;;;;;;;;5037579;27;93854;-57
2022/12/17 20:12:11;;;;;;;7.83;2.67;;;;;;;;;;5038007;27;92012;-57
2022/12/17 20:14:39;;;;;;;9.50;4.07;;;;;;;;;;5037921;27;92137;-58
2022/12/17 20:17:09;;;;;;;5.40;3.33;;;;;;;;;;5037514;27;94253;-60
2022/12/17 20:19:38;;;;;;;5.27;3.03;;;;;;;;;;5037874;28;93846;-58
2022/12/17 20:22:06;;;;;;;5.90;2.63;;;;;;;;;;5037542;28;92401;-58
2022/12/17 20:24:36;;;;;;;4.07;2.87;;;;;;;;;;5037031;27;92294;-58
2022/12/17 20:27:04;;;;;;;6.90;3.33;;;;;;;;;;5036543;28;95081;-58
2022/12/17 20:29:33;;;;;;;6.50;2.70;;;;;;;;;;5037137;27;92508;-58
2022/12/17 20:32:01;;;;;;;7.20;3.37;;;;;;;;;;5037143;28;92132;-58
2022/12/17 20:34:31;;;;;;;5.90;2.80;;;;;;;;;;5037709;27;92062;-58
2022/12/17 20:36:59;;;;;;;5.67;3.00;;;;;;;;;;5037665;28;92689;-58
2022/12/17 20:39:27;;;;;;;6.20;3.27;;;;;;;;;;5037257;27;92795;-58
2022/12/17 20:41:56;;;;;;;6.87;3.53;;;;;;;;;;5038576;27;92111;-58
2022/12/17 20:44:24;;;;;;;5.83;2.73;;;;;;;;;;5041415;27;91383;-58
2022/12/17 20:46:53;;;;;;;4.13;2.93;;;;;;;;;;5040190;28;93242;-58
2022/12/17 20:49:21;;;;;;;4.77;3.07;;;;;;;;;;5040431;27;92785;-57
2022/12/17 20:51:51;;;;;;;3.47;2.23;;;;;;;;;;5039976;27;93129;-58
2022/12/17 20:54:20;;;;;;;5.53;3.07;;;;;;;;;;5041246;27;92099;-59
2022/12/17 20:56:49;;;;;;;4.70;2.60;;;;;;;;;;5039965;27;94699;-59
2022/12/17 20:59:17;;;;;;;4.77;3.07;;;;;;;;;;5040201;27;92850;-58
2022/12/17 21:01:46;;;;;;;4.63;3.13;;;;;;;;;;5040924;27;91994;-58
2022/12/17 21:04:22;;;;;;;5.50;2.77;;;;;;;;;;5040363;27;92071;-58
2022/12/17 21:06:52;;;;;;;5.07;2.90;;;;;;;;;;5039760;27;93063;-58
2022/12/17 21:09:21;;;;;;;4.23;2.77;;;;;;;;;;5040355;28;93960;-59
2022/12/17 21:11:50;;;;;;;6.27;2.90;;;;;;;;;;5040400;27;92184;-58
2022/12/17 21:14:18;;;;;;;7.13;3.60;;;;;;;;;;5040114;27;92394;-58
2022/12/17 21:16:46;;;;;;;6.10;3.93;;;;;;;;;;5039013;28;95044;-58
2022/12/17 21:19:17;;;;;;;5.90;2.90;;;;;;;;;;5040548;27;93298;-58
2022/12/17 21:21:45;;;;;;;5.57;2.67;;;;;;;;;;5040592;27;92068;-58
2022/12/17 21:24:15;;;;;;;5.00;2.70;;;;;;;;;;5040103;27;92108;-58
2022/12/17 21:26:44;;;;;;;6.33;3.27;;;;;;;;;;5039665;27;93247;-59
2022/12/17 21:29:13;;;;;;;4.63;3.20;;;;;;;;;;5039736;27;93561;-58
2022/12/17 21:31:41;;;;;;;4.50;2.77;;;;;;;;;;5040399;28;92035;-58
2022/12/17 21:34:11;;;;;;;5.40;2.90;;;;;;;;;;5040296;28;91356;-58
2022/12/17 21:36:39;;;;;;;5.30;3.40;;;;;;;;;;5039660;27;94200;-58
2022/12/17 21:39:08;;;;;;;4.80;2.40;;;;;;;;;;5039265;28;93873;-58
2022/12/17 21:41:38;;;;;;;6.93;2.90;;;;;;;;;;5038970;27;92999;-58
2022/12/17 21:44:12;;;;;;;5.67;3.17;;;;;;;;;;5040041;27;92054;-63
2022/12/17 21:46:41;;;;;;;6.93;2.63;;;;;;;;;;5039986;27;92158;-58
2022/12/17 21:49:11;;;;;;;6.13;3.17;;;;;;;;;;5039493;27;93898;-58
2022/12/17 21:51:39;;;;;;;5.30;2.20;;;;;;;;;;5039588;27;92203;-58
2022/12/17 21:54:08;;;;;;;5.63;2.47;;;;;;;;;;5039606;27;92212;-58
2022/12/17 21:56:41;;;;;;;5.90;3.27;;;;;;;;;;5039319;27;93168;-58
2022/12/17 21:59:11;;;;;;;5.40;2.63;;;;;;;;;;5039332;28;94000;-58
2022/12/17 22:01:39;;;;;;;6.87;3.57;;;;;;;;;;5039522;27;92125;-58
2022/12/17 22:04:07;;;;;;;2.60;2.37;;;;;;;;;;5039975;27;92043;-58
2022/12/17 22:06:37;;;;;;;5.97;3.17;;;;;;;;;;5038737;27;95183;-57
2022/12/17 22:09:24;;;;;;;7.00;2.93;;;;;;;;;;5038977;27;93688;-58
2022/12/17 22:14:59;;;;;;;3.33;2.30;;;;;;;;;;5039061;27;92133;-60
2022/12/17 22:17:28;;;;;;;4.70;2.70;;;;;;;;;;5038648;28;94026;-59
2022/12/17 22:19:57;;;;;;;4.13;2.60;;;;;;;;;;5038962;27;94070;-58
2022/12/17 22:22:25;;;;;;;2.87;2.57;;;;;;;;;;5039656;28;92059;-58
2022/12/17 22:24:54;;;;;;;4.33;2.87;;;;;;;;;;5039812;28;91710;-60
2022/12/17 22:27:23;;;;;;;4.47;2.80;;;;;;;;;;5038487;27;94128;-59
2022/12/17 22:35:25;;;;;;;4.33;3.13;;;;;;;;;;5039386;28;92157;-60
2022/12/17 22:38:13;;;;;;;5.90;3.23;;;;;;;;;;5038293;27;93265;-59
2022/12/17 22:41:06;;;;;;;4.30;2.90;;;;;;;;;;5038742;27;95088;-60
2022/12/17 22:43:55;;;;;;;3.50;2.20;;;;;;;;;;5038671;27;92035;-60
2022/12/17 22:46:43;;;;;;;3.83;2.77;;;;;;;;;;5038957;27;92105;-60
2022/12/17 22:49:12;;;;;;;4.20;3.17;;;;;;;;;;5038856;28;93181;-60
2022/12/17 22:51:40;;;;;;;3.13;2.20;;;;;;;;;;5038484;27;92915;-60
2022/12/17 22:54:10;;;;;;;4.83;2.83;;;;;;;;;;5038739;27;92071;-60
2022/12/17 22:56:40;;;;;;;3.83;2.27;;;;;;;;;;5038226;28;92907;-60
2022/12/17 22:59:29;;;;;;;4.80;2.97;;;;;;;;;;5037424;28;96359;-60
2022/12/17 23:01:58;;;;;;;4.47;2.70;;;;;;;;;;5038079;27;94804;-59
2022/12/17 23:04:26;;;;;;;3.30;2.00;;;;;;;;;;5037915;27;91968;-59
2022/12/17 23:06:54;;;;;;;4.47;2.60;;;;;;;;;;5038675;27;92081;-59
2022/12/17 23:09:23;;;;;;;4.90;3.10;;;;;;;;;;5038398;28;94140;-59
2022/12/17 23:11:51;;;;;;;5.40;2.43;;;;;;;;;;5037852;27;92902;-59
2022/12/17 23:14:19;;;;;;;6.50;2.47;;;;;;;;;;5038482;27;92180;-59
2022/12/17 23:16:49;;;;;;;4.40;2.67;;;;;;;;;;5038797;27;91350;-59
2022/12/17 23:19:17;;;;;;;6.83;3.23;;;;;;;;;;5038533;28;92935;-59
2022/12/17 23:21:49;;;;;;;5.87;2.53;;;;;;;;;;5038152;27;92826;-60
2022/12/17 23:24:17;;;;;;;3.93;2.23;;;;;;;;;;5038289;28;93029;-60
2022/12/17 23:26:45;;;;;;;4.20;2.90;;;;;;;;;;5038558;27;92184;-59
2022/12/17 23:29:14;;;;;;;5.67;2.90;;;;;;;;;;5038351;27;94166;-59
2022/12/17 23:31:46;;;;;;;4.10;2.63;;;;;;;;;;5038351;27;92923;-59
2022/12/17 23:34:16;;;;;;;5.13;2.43;;;;;;;;;;5038258;27;92085;-60
2022/12/17 23:36:45;;;;;;;4.80;2.13;;;;;;;;;;5038077;28;92195;-59
2022/12/17 23:39:13;;;;;;;4.20;3.50;;;;;;;;;;5037569;27;93234;-59
2022/12/17 23:41:41;;;;;;;4.43;3.10;;;;;;;;;;5038181;27;93945;-59
2022/12/17 23:44:10;;;;;;;4.83;3.07;;;;;;;;;;5038542;28;92147;-59
2022/12/17 23:46:38;;;;;;;3.37;2.13;;;;;;;;;;5038221;27;92129;-59
2022/12/17 23:49:07;;;;;;;5.60;3.03;;;;;;;;;;5037069;27;94265;-59
2022/12/17 23:51:36;;;;;;;2.33;1.50;;;;;;;;;;5037406;27;93601;-59
2022/12/17 23:54:05;;;;;;;7.67;3.33;;;;;;;;;;5038343;28;92189;-58
2022/12/17 23:56:34;;;;;;;3.60;2.20;;;;;;;;;;5037757;27;92089;-58
2022/12/17 23:59:02;;;;;;;4.13;2.53;;;;;;;;;;5037559;28;94080;-58
